<?xml version='1.0' encoding='UTF-8'?><gpx version="1.1" creator="JPX - https://github.com/jenetics/jpx" xmlns="http://www.topografix.com/GPX/1/1"><trk><trkseg><trkpt lat="42.21027657953939" lon="13.8196699923795"><ele>357.0</ele><time>2026-05-02T11:09:28Z</time></trkpt><trkpt lat="42.21034661456427" lon="13.819653453247577"><ele>357.0</ele><time>2026-05-02T11:09:32.999Z</time></trkpt><trkpt lat="42.210415208034256" lon="13.819672369046938"><ele>357.0</ele><time>2026-05-02T11:09:37.999Z</time></trkpt><trkpt lat="42.210485173820025" lon="13.819686882908188"><ele>357.0</ele><time>2026-05-02T11:09:42.999Z</time></trkpt><trkpt lat="42.21054731703844" lon="13.819711192297317"><ele>357.0</ele><time>2026-05-02T11:09:47.999Z</time></trkpt><trkpt lat="42.21060563955308" lon="13.81975122436696"><ele>357.0</ele><time>2026-05-02T11:09:52.999Z</time></trkpt><trkpt lat="42.21066818125538" lon="13.81977890174248"><ele>357.0</ele><time>2026-05-02T11:09:57.999Z</time></trkpt><trkpt lat="42.210733710964476" lon="13.819805559574453"><ele>355.85714285714283</ele><time>2026-05-02T11:10:02.999Z</time></trkpt><trkpt lat="42.21079764743904" lon="13.819830130829352"><ele>354.7142857142857</ele><time>2026-05-02T11:10:07.999Z</time></trkpt><trkpt lat="42.210864555395375" lon="13.819816122446007"><ele>353.57142857142856</ele><time>2026-05-02T11:10:12.999Z</time></trkpt><trkpt lat="42.210895397672594" lon="13.819731418563535"><ele>352.42857142857144</ele><time>2026-05-02T11:10:18.999Z</time></trkpt><trkpt lat="42.21083896897894" lon="13.819687240950445"><ele>351.2857142857143</ele><time>2026-05-02T11:10:23.999Z</time></trkpt><trkpt lat="42.21078367867081" lon="13.819638597489908"><ele>350.1428571428571</ele><time>2026-05-02T11:10:28.999Z</time></trkpt><trkpt lat="42.2107180050431" lon="13.819586978557563"><ele>349.0</ele><time>2026-05-02T11:10:34.999Z</time></trkpt><trkpt lat="42.210662643961534" lon="13.819536612003962"><ele>350.1428571428571</ele><time>2026-05-02T11:10:39.999Z</time></trkpt><trkpt lat="42.210598423307225" lon="13.819493735921126"><ele>351.2857142857143</ele><time>2026-05-02T11:10:45.998Z</time></trkpt><trkpt lat="42.21053505139444" lon="13.819450786433226"><ele>352.42857142857144</ele><time>2026-05-02T11:10:51.998Z</time></trkpt><trkpt lat="42.210471811693225" lon="13.81938978749453"><ele>353.57142857142856</ele><time>2026-05-02T11:10:57.998Z</time></trkpt><trkpt lat="42.21041230894902" lon="13.819339366253596"><ele>354.7142857142857</ele><time>2026-05-02T11:11:03.998Z</time></trkpt><trkpt lat="42.210364676313226" lon="13.819274965499714"><ele>355.85714285714283</ele><time>2026-05-02T11:11:08.998Z</time></trkpt><trkpt lat="42.21031269810442" lon="13.819205176816784"><ele>357.0</ele><time>2026-05-02T11:11:14.999Z</time></trkpt><trkpt lat="42.210268177004" lon="13.819142363009167"><ele>357.57142857142856</ele><time>2026-05-02T11:11:19.999Z</time></trkpt><trkpt lat="42.21022102567332" lon="13.819076745452044"><ele>358.1428571428571</ele><time>2026-05-02T11:11:26Z</time></trkpt><trkpt lat="42.21017362919685" lon="13.818999543136258"><ele>358.7142857142857</ele><time>2026-05-02T11:11:31.999Z</time></trkpt><trkpt lat="42.21012147771602" lon="13.8189342293017"><ele>359.2857142857143</ele><time>2026-05-02T11:11:37.999Z</time></trkpt><trkpt lat="42.21007492102295" lon="13.81887413791291"><ele>359.85714285714283</ele><time>2026-05-02T11:11:42.999Z</time></trkpt><trkpt lat="42.21003583328117" lon="13.818806787924053"><ele>360.42857142857144</ele><time>2026-05-02T11:11:47.999Z</time></trkpt><trkpt lat="42.20999089669318" lon="13.818744652345645"><ele>361.0</ele><time>2026-05-02T11:11:52.999Z</time></trkpt><trkpt lat="42.20994128308916" lon="13.81867205557604"><ele>361.0</ele><time>2026-05-02T11:11:58.999Z</time></trkpt><trkpt lat="42.20987175638527" lon="13.818665417756643"><ele>361.0</ele><time>2026-05-02T11:12:04.999Z</time></trkpt><trkpt lat="42.20980862926133" lon="13.818674554844966"><ele>361.0</ele><time>2026-05-02T11:12:10.999Z</time></trkpt><trkpt lat="42.209741023523264" lon="13.81870100193589"><ele>361.0</ele><time>2026-05-02T11:12:19.999Z</time></trkpt><trkpt lat="42.209682431001966" lon="13.818656676842055"><ele>361.0</ele><time>2026-05-02T11:12:25.999Z</time></trkpt><trkpt lat="42.20964102392041" lon="13.818584158167106"><ele>361.0</ele><time>2026-05-02T11:12:31.999Z</time></trkpt><trkpt lat="42.20959341197669" lon="13.81851810454195"><ele>361.0</ele><time>2026-05-02T11:12:37.999Z</time></trkpt><trkpt lat="42.209550627346346" lon="13.818448222906584"><ele>362.5714285714286</ele><time>2026-05-02T11:12:43.998Z</time></trkpt><trkpt lat="42.20951630612185" lon="13.818374752531126"><ele>364.1428571428571</ele><time>2026-05-02T11:12:48.998Z</time></trkpt><trkpt lat="42.209477671839856" lon="13.818290100754844"><ele>365.7142857142857</ele><time>2026-05-02T11:12:54.998Z</time></trkpt><trkpt lat="42.20943936884335" lon="13.818207570929602"><ele>367.28571428571433</ele><time>2026-05-02T11:13:01.998Z</time></trkpt><trkpt lat="42.209396069134186" lon="13.818130162138551"><ele>368.8571428571429</ele><time>2026-05-02T11:13:07.998Z</time></trkpt><trkpt lat="42.20935328484011" lon="13.818064939130878"><ele>370.42857142857144</ele><time>2026-05-02T11:13:13.998Z</time></trkpt><trkpt lat="42.209299909982896" lon="13.818006391640537"><ele>372.0</ele><time>2026-05-02T11:13:20Z</time></trkpt><trkpt lat="42.20924720598339" lon="13.817937709535933"><ele>372.00000000000006</ele><time>2026-05-02T11:13:27Z</time></trkpt><trkpt lat="42.20920874937178" lon="13.817863959111238"><ele>372.0</ele><time>2026-05-02T11:13:33Z</time></trkpt><trkpt lat="42.209152475779376" lon="13.817792193082132"><ele>372.0</ele><time>2026-05-02T11:13:39Z</time></trkpt><trkpt lat="42.20910528787639" lon="13.817729230745519"><ele>372.0</ele><time>2026-05-02T11:13:44Z</time></trkpt><trkpt lat="42.209048335740555" lon="13.81766824440701"><ele>372.0</ele><time>2026-05-02T11:13:49.999Z</time></trkpt><trkpt lat="42.208991862666565" lon="13.817608414896222"><ele>372.00000000000006</ele><time>2026-05-02T11:13:55.999Z</time></trkpt><trkpt lat="42.20895188290922" lon="13.817523736060451"><ele>372.0</ele><time>2026-05-02T11:14:02.999Z</time></trkpt><trkpt lat="42.20890175467645" lon="13.817449503059914"><ele>374.5714285714286</ele><time>2026-05-02T11:14:08.999Z</time></trkpt><trkpt lat="42.208847126075156" lon="13.817389671909153"><ele>377.14285714285717</ele><time>2026-05-02T11:14:14.999Z</time></trkpt><trkpt lat="42.20878432268927" lon="13.817368170428388"><ele>379.7142857142857</ele><time>2026-05-02T11:14:20.999Z</time></trkpt><trkpt lat="42.208719370757976" lon="13.81738268882726"><ele>382.28571428571433</ele><time>2026-05-02T11:14:25.999Z</time></trkpt><trkpt lat="42.20865731969387" lon="13.817418498629767"><ele>384.85714285714283</ele><time>2026-05-02T11:14:31.999Z</time></trkpt><trkpt lat="42.20860323648728" lon="13.817472769475236"><ele>387.42857142857144</ele><time>2026-05-02T11:14:37.999Z</time></trkpt><trkpt lat="42.20854692573256" lon="13.817538756031515"><ele>390.0</ele><time>2026-05-02T11:14:45.999Z</time></trkpt><trkpt lat="42.20848664550719" lon="13.817567257089525"><ele>390.0</ele><time>2026-05-02T11:14:50.999Z</time></trkpt><trkpt lat="42.2084364362604" lon="13.817506955504394"><ele>390.0</ele><time>2026-05-02T11:15:01.998Z</time></trkpt><trkpt lat="42.20839995424667" lon="13.817424529586077"><ele>390.0</ele><time>2026-05-02T11:15:09.998Z</time></trkpt><trkpt lat="42.208354080772125" lon="13.817365053756363"><ele>390.0</ele><time>2026-05-02T11:15:15.998Z</time></trkpt><trkpt lat="42.208296967982434" lon="13.817323752489465"><ele>390.0</ele><time>2026-05-02T11:15:21.998Z</time></trkpt><trkpt lat="42.2082282151501" lon="13.817292889678463"><ele>390.0</ele><time>2026-05-02T11:15:27Z</time></trkpt><trkpt lat="42.20819371279396" lon="13.817218047699155"><ele>390.0</ele><time>2026-05-02T11:15:40Z</time></trkpt><trkpt lat="42.20825643704035" lon="13.817179084542614"><ele>390.0</ele><time>2026-05-02T11:15:49Z</time></trkpt><trkpt lat="42.20831626921637" lon="13.817210444599343"><ele>390.0</ele><time>2026-05-02T11:15:56.999Z</time></trkpt><trkpt lat="42.208380837760856" lon="13.817186157912346"><ele>390.0</ele><time>2026-05-02T11:16:03.999Z</time></trkpt><trkpt lat="42.20843777291334" lon="13.817145611322468"><ele>390.0</ele><time>2026-05-02T11:16:10.999Z</time></trkpt><trkpt lat="42.208495023223335" lon="13.817107868137398"><ele>390.0</ele><time>2026-05-02T11:16:17.999Z</time></trkpt><trkpt lat="42.208550899503116" lon="13.817062435142619"><ele>390.0</ele><time>2026-05-02T11:16:23.999Z</time></trkpt><trkpt lat="42.20860530076479" lon="13.817018968870519"><ele>390.0</ele><time>2026-05-02T11:16:30.999Z</time></trkpt><trkpt lat="42.20866536565926" lon="13.816987168059667"><ele>390.0</ele><time>2026-05-02T11:16:45.999Z</time></trkpt><trkpt lat="42.208732005120794" lon="13.816979272285245"><ele>390.0</ele><time>2026-05-02T11:16:51.999Z</time></trkpt><trkpt lat="42.20880217998508" lon="13.817014808419971"><ele>390.0</ele><time>2026-05-02T11:16:56.999Z</time></trkpt><trkpt lat="42.20886264362472" lon="13.817060111409601"><ele>390.0</ele><time>2026-05-02T11:17:02.998Z</time></trkpt><trkpt lat="42.208914207122646" lon="13.817112356464351"><ele>390.0</ele><time>2026-05-02T11:17:07.998Z</time></trkpt><trkpt lat="42.20896239444955" lon="13.81717738184587"><ele>390.0</ele><time>2026-05-02T11:17:12.998Z</time></trkpt><trkpt lat="42.209012557943936" lon="13.817251796321555"><ele>390.0</ele><time>2026-05-02T11:17:18.998Z</time></trkpt><trkpt lat="42.20905574479663" lon="13.817314274055052"><ele>387.42857142857144</ele><time>2026-05-02T11:17:23.998Z</time></trkpt><trkpt lat="42.20910538354795" lon="13.817381937213257"><ele>384.85714285714283</ele><time>2026-05-02T11:17:30Z</time></trkpt><trkpt lat="42.209155930975236" lon="13.817433528913492"><ele>382.28571428571433</ele><time>2026-05-02T11:17:35Z</time></trkpt><trkpt lat="42.20920343659417" lon="13.81750611461308"><ele>379.7142857142857</ele><time>2026-05-02T11:17:41Z</time></trkpt><trkpt lat="42.2092488139882" lon="13.81758404236387"><ele>377.14285714285717</ele><time>2026-05-02T11:17:47Z</time></trkpt><trkpt lat="42.2092911084882" lon="13.817666220474736"><ele>374.5714285714286</ele><time>2026-05-02T11:17:53Z</time></trkpt><trkpt lat="42.20933673642864" lon="13.817735457979662"><ele>372.0</ele><time>2026-05-02T11:17:59Z</time></trkpt><trkpt lat="42.209392201020904" lon="13.817797614591527"><ele>372.00000000000006</ele><time>2026-05-02T11:18:04.999Z</time></trkpt><trkpt lat="42.209437378776514" lon="13.817857376162666"><ele>372.0</ele><time>2026-05-02T11:18:09.999Z</time></trkpt><trkpt lat="42.2094881383081" lon="13.817907729960245"><ele>372.0</ele><time>2026-05-02T11:18:14.999Z</time></trkpt><trkpt lat="42.209548731544615" lon="13.817938045065592"><ele>372.0</ele><time>2026-05-02T11:18:19.999Z</time></trkpt><trkpt lat="42.20961284833939" lon="13.817950225855208"><ele>372.0</ele><time>2026-05-02T11:18:24.999Z</time></trkpt><trkpt lat="42.209674902006704" lon="13.817977441996659"><ele>372.00000000000006</ele><time>2026-05-02T11:18:29.999Z</time></trkpt><trkpt lat="42.20974452503129" lon="13.81801549851523"><ele>372.0</ele><time>2026-05-02T11:18:36.999Z</time></trkpt><trkpt lat="42.209798196288254" lon="13.81808379330639"><ele>370.7142857142857</ele><time>2026-05-02T11:18:42.999Z</time></trkpt><trkpt lat="42.2098591953661" lon="13.818133539601384"><ele>369.42857142857144</ele><time>2026-05-02T11:18:48.999Z</time></trkpt><trkpt lat="42.20991343276854" lon="13.818201065295149"><ele>368.1428571428571</ele><time>2026-05-02T11:18:54.999Z</time></trkpt><trkpt lat="42.20996924536257" lon="13.818259318737164"><ele>366.8571428571429</ele><time>2026-05-02T11:19:00.999Z</time></trkpt><trkpt lat="42.21001988276444" lon="13.818327430930893"><ele>365.57142857142856</ele><time>2026-05-02T11:19:08.998Z</time></trkpt><trkpt lat="42.21004373690695" lon="13.818419504755196"><ele>364.2857142857143</ele><time>2026-05-02T11:19:14.998Z</time></trkpt><trkpt lat="42.21007958023546" lon="13.8184938888271"><ele>363.0</ele><time>2026-05-02T11:19:19.998Z</time></trkpt><trkpt lat="42.21013876792057" lon="13.818550679518834"><ele>362.99999999999994</ele><time>2026-05-02T11:19:25.998Z</time></trkpt><trkpt lat="42.210176824936894" lon="13.818465910687824"><ele>363.0</ele><time>2026-05-02T11:19:30.998Z</time></trkpt><trkpt lat="42.21018663163521" lon="13.818378353257696"><ele>363.0</ele><time>2026-05-02T11:19:37Z</time></trkpt><trkpt lat="42.21019457039095" lon="13.818280224610408"><ele>363.0</ele><time>2026-05-02T11:19:43Z</time></trkpt><trkpt lat="42.21018529821765" lon="13.81819503424465"><ele>363.0</ele><time>2026-05-02T11:19:48Z</time></trkpt><trkpt lat="42.2102080689642" lon="13.818099489606949"><ele>362.99999999999994</ele><time>2026-05-02T11:19:55Z</time></trkpt><trkpt lat="42.210204072744915" lon="13.818012775084874"><ele>363.0</ele><time>2026-05-02T11:20:00Z</time></trkpt><trkpt lat="42.21020272781682" lon="13.817914291542795"><ele>362.99999999999994</ele><time>2026-05-02T11:20:07Z</time></trkpt><trkpt lat="42.210217142677195" lon="13.81781655640692"><ele>363.0</ele><time>2026-05-02T11:20:23.999Z</time></trkpt><trkpt lat="42.21021156186274" lon="13.817729771140268"><ele>363.0</ele><time>2026-05-02T11:20:29.999Z</time></trkpt><trkpt lat="42.21020392406336" lon="13.817629628744529"><ele>363.0</ele><time>2026-05-02T11:20:35.999Z</time></trkpt><trkpt lat="42.210196273942486" lon="13.817537230383362"><ele>363.0</ele><time>2026-05-02T11:20:42.999Z</time></trkpt><trkpt lat="42.210152243138324" lon="13.817471567912754"><ele>362.99999999999994</ele><time>2026-05-02T11:20:48.999Z</time></trkpt><trkpt lat="42.21010274250196" lon="13.817412632726601"><ele>363.0</ele><time>2026-05-02T11:20:54.999Z</time></trkpt><trkpt lat="42.210055453138196" lon="13.817348991530041"><ele>362.71428571428567</ele><time>2026-05-02T11:21:00.999Z</time></trkpt><trkpt lat="42.20997693734338" lon="13.817341109870556"><ele>362.42857142857144</ele><time>2026-05-02T11:21:06.999Z</time></trkpt><trkpt lat="42.209911902230374" lon="13.817315191181587"><ele>362.1428571428571</ele><time>2026-05-02T11:21:15.998Z</time></trkpt><trkpt lat="42.20984672715843" lon="13.817267257231082"><ele>361.85714285714283</ele><time>2026-05-02T11:21:24.998Z</time></trkpt><trkpt lat="42.20977226533218" lon="13.817276494660279"><ele>361.57142857142856</ele><time>2026-05-02T11:21:31.998Z</time></trkpt><trkpt lat="42.209708206113476" lon="13.817252010594071"><ele>361.2857142857143</ele><time>2026-05-02T11:21:42Z</time></trkpt><trkpt lat="42.20964262832728" lon="13.81723739671365"><ele>361.0</ele><time>2026-05-02T11:21:47Z</time></trkpt><trkpt lat="42.209566768908005" lon="13.817230019725327"><ele>362.14285714285717</ele><time>2026-05-02T11:21:54Z</time></trkpt><trkpt lat="42.209511683070815" lon="13.817166913645456"><ele>363.2857142857143</ele><time>2026-05-02T11:22:07Z</time></trkpt><trkpt lat="42.20945909232458" lon="13.81711023006232"><ele>364.42857142857144</ele><time>2026-05-02T11:22:13Z</time></trkpt><trkpt lat="42.20939722708188" lon="13.817046096262318"><ele>365.57142857142856</ele><time>2026-05-02T11:22:18.999Z</time></trkpt><trkpt lat="42.20933504250127" lon="13.81699251212255"><ele>366.71428571428567</ele><time>2026-05-02T11:22:25.999Z</time></trkpt><trkpt lat="42.20927874809402" lon="13.81694757784566"><ele>367.85714285714283</ele><time>2026-05-02T11:22:30.999Z</time></trkpt><trkpt lat="42.20922062277625" lon="13.816913476336424"><ele>369.0</ele><time>2026-05-02T11:22:35.999Z</time></trkpt><trkpt lat="42.20916064497173" lon="13.816876193889106"><ele>369.0</ele><time>2026-05-02T11:22:41.999Z</time></trkpt><trkpt lat="42.20909817273776" lon="13.816863568365564"><ele>369.0</ele><time>2026-05-02T11:22:48.999Z</time></trkpt><trkpt lat="42.20903120228312" lon="13.816847939189369"><ele>369.0</ele><time>2026-05-02T11:22:55.999Z</time></trkpt><trkpt lat="42.20896788784614" lon="13.816832673079082"><ele>369.0</ele><time>2026-05-02T11:23:01.999Z</time></trkpt><trkpt lat="42.208881472471056" lon="13.816870813083609"><ele>369.0</ele><time>2026-05-02T11:23:32.998Z</time></trkpt><trkpt lat="42.20881842014673" lon="13.81685580448401"><ele>369.0</ele><time>2026-05-02T11:24:10.999Z</time></trkpt><trkpt lat="42.20877766139253" lon="13.816776549433467"><ele>369.0</ele><time>2026-05-02T11:24:24.999Z</time></trkpt><trkpt lat="42.208714374106265" lon="13.816773352475785"><ele>370.85714285714283</ele><time>2026-05-02T11:24:30.999Z</time></trkpt><trkpt lat="42.20864959321521" lon="13.816769322174475"><ele>372.71428571428567</ele><time>2026-05-02T11:24:36.999Z</time></trkpt><trkpt lat="42.208580512591865" lon="13.816755154309433"><ele>374.57142857142856</ele><time>2026-05-02T11:24:42.999Z</time></trkpt><trkpt lat="42.20851014817421" lon="13.816734020405036"><ele>376.42857142857144</ele><time>2026-05-02T11:24:49.999Z</time></trkpt><trkpt lat="42.20844799019333" lon="13.81671364058082"><ele>378.2857142857143</ele><time>2026-05-02T11:24:58.999Z</time></trkpt><trkpt lat="42.20838538168159" lon="13.81667802999474"><ele>380.14285714285717</ele><time>2026-05-02T11:25:10.998Z</time></trkpt><trkpt lat="42.20832047198712" lon="13.81665078173081"><ele>382.0</ele><time>2026-05-02T11:25:16.998Z</time></trkpt><trkpt lat="42.208244632679055" lon="13.816642119439152"><ele>382.0</ele><time>2026-05-02T11:25:21.998Z</time></trkpt><trkpt lat="42.20819564705011" lon="13.816586829151882"><ele>382.0</ele><time>2026-05-02T11:25:28.998Z</time></trkpt><trkpt lat="42.2081811648982" lon="13.81650405926164"><ele>382.0</ele><time>2026-05-02T11:25:37.998Z</time></trkpt><trkpt lat="42.208129144036036" lon="13.816448496552402"><ele>382.0</ele><time>2026-05-02T11:25:55.999Z</time></trkpt><trkpt lat="42.20811878927524" lon="13.816363643870268"><ele>382.0</ele><time>2026-05-02T11:26:08.999Z</time></trkpt><trkpt lat="42.20810417971641" lon="13.816278412712295"><ele>382.0</ele><time>2026-05-02T11:26:26.999Z</time></trkpt><trkpt lat="42.20805959458894" lon="13.816214330540937"><ele>382.0</ele><time>2026-05-02T11:26:32.999Z</time></trkpt><trkpt lat="42.208023433135786" lon="13.816133779164948"><ele>384.8571428571429</ele><time>2026-05-02T11:26:39.999Z</time></trkpt><trkpt lat="42.20795934616235" lon="13.816125223639434"><ele>387.71428571428567</ele><time>2026-05-02T11:26:47.998Z</time></trkpt><trkpt lat="42.207891980456765" lon="13.81611438548413"><ele>390.57142857142856</ele><time>2026-05-02T11:27:03.998Z</time></trkpt><trkpt lat="42.20785502323718" lon="13.816034404374378"><ele>393.42857142857144</ele><time>2026-05-02T11:27:10.998Z</time></trkpt><trkpt lat="42.20782507244891" lon="13.815955711844445"><ele>396.28571428571433</ele><time>2026-05-02T11:27:17.998Z</time></trkpt><trkpt lat="42.20779765756636" lon="13.815866722940783"><ele>399.1428571428571</ele><time>2026-05-02T11:27:24.998Z</time></trkpt><trkpt lat="42.207748494696325" lon="13.815803208591454"><ele>402.0</ele><time>2026-05-02T11:27:37.998Z</time></trkpt><trkpt lat="42.20771788233429" lon="13.815727513839231"><ele>402.0</ele><time>2026-05-02T11:27:45.998Z</time></trkpt><trkpt lat="42.20767606433818" lon="13.815663622695565"><ele>402.0</ele><time>2026-05-02T11:27:52.997Z</time></trkpt><trkpt lat="42.20774235546381" lon="13.815665974048965"><ele>402.0</ele><time>2026-05-02T11:28:15.999Z</time></trkpt><trkpt lat="42.20780612335964" lon="13.815685660435907"><ele>402.0</ele><time>2026-05-02T11:28:22.999Z</time></trkpt><trkpt lat="42.207873245930486" lon="13.815691701830549"><ele>402.0</ele><time>2026-05-02T11:28:39.999Z</time></trkpt><trkpt lat="42.20793647806082" lon="13.815746779616282"><ele>402.0</ele><time>2026-05-02T11:28:46.999Z</time></trkpt><trkpt lat="42.207974692579675" lon="13.815819794237775"><ele>402.0</ele><time>2026-05-02T11:28:55.999Z</time></trkpt><trkpt lat="42.208024828227465" lon="13.815872743113855"><ele>402.0</ele><time>2026-05-02T11:29:01.999Z</time></trkpt><trkpt lat="42.20806665676745" lon="13.815943719356417"><ele>402.0</ele><time>2026-05-02T11:29:07.999Z</time></trkpt><trkpt lat="42.20812139004469" lon="13.816004741528287"><ele>402.0</ele><time>2026-05-02T11:29:13.998Z</time></trkpt><trkpt lat="42.20816863027455" lon="13.816061430696495"><ele>402.0</ele><time>2026-05-02T11:29:18.998Z</time></trkpt><trkpt lat="42.20822418614756" lon="13.816121151673416"><ele>402.0</ele><time>2026-05-02T11:29:25.998Z</time></trkpt><trkpt lat="42.2082688343723" lon="13.81618130095831"><ele>402.0</ele><time>2026-05-02T11:29:30.998Z</time></trkpt><trkpt lat="42.20832535254201" lon="13.816222196080423"><ele>402.0</ele><time>2026-05-02T11:29:36.998Z</time></trkpt><trkpt lat="42.20838553280841" lon="13.816269865887064"><ele>399.1428571428571</ele><time>2026-05-02T11:29:43.998Z</time></trkpt><trkpt lat="42.208458480055334" lon="13.816293408290539"><ele>396.28571428571433</ele><time>2026-05-02T11:29:50.998Z</time></trkpt><trkpt lat="42.20853019801645" lon="13.816311983410127"><ele>393.42857142857144</ele><time>2026-05-02T11:29:56.998Z</time></trkpt><trkpt lat="42.20858774419356" lon="13.816357411940004"><ele>390.57142857142856</ele><time>2026-05-02T11:30:01.998Z</time></trkpt><trkpt lat="42.20865679889989" lon="13.816397986714847"><ele>387.71428571428567</ele><time>2026-05-02T11:30:08Z</time></trkpt><trkpt lat="42.208720362866885" lon="13.816412277830798"><ele>384.8571428571429</ele><time>2026-05-02T11:30:15Z</time></trkpt><trkpt lat="42.20878233509403" lon="13.816451295020453"><ele>382.0</ele><time>2026-05-02T11:30:22Z</time></trkpt><trkpt lat="42.208843349891964" lon="13.81649036938335"><ele>382.0</ele><time>2026-05-02T11:30:29.999Z</time></trkpt><trkpt lat="42.20890024091876" lon="13.816533328823486"><ele>382.0</ele><time>2026-05-02T11:30:35.999Z</time></trkpt><trkpt lat="42.20896346719927" lon="13.816585740373606"><ele>382.0</ele><time>2026-05-02T11:30:50.999Z</time></trkpt><trkpt lat="42.209042037138595" lon="13.816597866419686"><ele>382.0</ele><time>2026-05-02T11:30:56.999Z</time></trkpt><trkpt lat="42.20911161685603" lon="13.816626338671604"><ele>382.0</ele><time>2026-05-02T11:31:02.999Z</time></trkpt><trkpt lat="42.20917901257789" lon="13.816659389080131"><ele>382.0</ele><time>2026-05-02T11:31:08.999Z</time></trkpt><trkpt lat="42.209243302358246" lon="13.816680544796132"><ele>382.0</ele><time>2026-05-02T11:31:13.999Z</time></trkpt><trkpt lat="42.20929351968447" lon="13.816733399916075"><ele>381.5714285714286</ele><time>2026-05-02T11:31:19.999Z</time></trkpt><trkpt lat="42.20935015705952" lon="13.816778095984459"><ele>381.1428571428571</ele><time>2026-05-02T11:31:25.999Z</time></trkpt><trkpt lat="42.20940613974509" lon="13.816832860570276"><ele>380.7142857142857</ele><time>2026-05-02T11:31:32.998Z</time></trkpt><trkpt lat="42.209469990045086" lon="13.816859801717605"><ele>380.28571428571433</ele><time>2026-05-02T11:31:37.998Z</time></trkpt><trkpt lat="42.20952974469891" lon="13.816900891066004"><ele>379.8571428571429</ele><time>2026-05-02T11:31:43.998Z</time></trkpt><trkpt lat="42.209587593278705" lon="13.816947384228389"><ele>379.42857142857144</ele><time>2026-05-02T11:31:50.998Z</time></trkpt><trkpt lat="42.20964854346893" lon="13.816992026909666"><ele>379.0</ele><time>2026-05-02T11:31:56.998Z</time></trkpt><trkpt lat="42.20970955162874" lon="13.817015793658618"><ele>377.5714285714286</ele><time>2026-05-02T11:32:01.998Z</time></trkpt><trkpt lat="42.20976892720112" lon="13.817058768008309"><ele>376.14285714285717</ele><time>2026-05-02T11:32:07.998Z</time></trkpt><trkpt lat="42.20984024773082" lon="13.81708911360376"><ele>374.7142857142857</ele><time>2026-05-02T11:32:13Z</time></trkpt><trkpt lat="42.20991182774334" lon="13.817110601125384"><ele>373.28571428571433</ele><time>2026-05-02T11:32:18Z</time></trkpt><trkpt lat="42.20998322888681" lon="13.81711896356705"><ele>371.85714285714283</ele><time>2026-05-02T11:32:24Z</time></trkpt><trkpt lat="42.21005014282913" lon="13.817119509946005"><ele>370.42857142857144</ele><time>2026-05-02T11:32:30Z</time></trkpt><trkpt lat="42.210112918055906" lon="13.817092034769399"><ele>369.0</ele><time>2026-05-02T11:32:36Z</time></trkpt><trkpt lat="42.21016482545995" lon="13.81704034993105"><ele>367.85714285714283</ele><time>2026-05-02T11:32:43.999Z</time></trkpt><trkpt lat="42.21021023034211" lon="13.816979037252604"><ele>366.71428571428567</ele><time>2026-05-02T11:32:51Z</time></trkpt><trkpt lat="42.21025408137906" lon="13.816917680556756"><ele>365.57142857142856</ele><time>2026-05-02T11:33:02Z</time></trkpt><trkpt lat="42.21027030158606" lon="13.816828823053338"><ele>364.42857142857144</ele><time>2026-05-02T11:33:51.999Z</time></trkpt><trkpt lat="42.21031439464981" lon="13.816764651928116"><ele>363.2857142857143</ele><time>2026-05-02T11:34:09.999Z</time></trkpt><trkpt lat="42.21037748537593" lon="13.816791799797839"><ele>362.14285714285717</ele><time>2026-05-02T11:34:22.001Z</time></trkpt><trkpt lat="42.210451987307856" lon="13.81679845122252"><ele>361.0</ele><time>2026-05-02T11:34:28.001Z</time></trkpt><trkpt lat="42.21052211843625" lon="13.816765735562091"><ele>362.7142857142857</ele><time>2026-05-02T11:34:34.001Z</time></trkpt><trkpt lat="42.21058732593264" lon="13.816756646529385"><ele>364.4285714285714</ele><time>2026-05-02T11:34:40.001Z</time></trkpt><trkpt lat="42.21064936697565" lon="13.816738405258185"><ele>366.1428571428571</ele><time>2026-05-02T11:34:45Z</time></trkpt><trkpt lat="42.21070762605372" lon="13.816699285516563"><ele>367.8571428571429</ele><time>2026-05-02T11:34:52Z</time></trkpt><trkpt lat="42.21077184957142" lon="13.816686132749565"><ele>369.57142857142856</ele><time>2026-05-02T11:34:58Z</time></trkpt><trkpt lat="42.21083507225292" lon="13.8166942729867"><ele>371.2857142857143</ele><time>2026-05-02T11:35:06Z</time></trkpt><trkpt lat="42.210901818259316" lon="13.816717447652243"><ele>373.0</ele><time>2026-05-02T11:35:15Z</time></trkpt><trkpt lat="42.21096648466899" lon="13.816749426923664"><ele>373.0</ele><time>2026-05-02T11:35:21Z</time></trkpt><trkpt lat="42.2110335652014" lon="13.816736058649525"><ele>373.0</ele><time>2026-05-02T11:35:27Z</time></trkpt><trkpt lat="42.21109923915956" lon="13.81669002323885"><ele>373.0</ele><time>2026-05-02T11:35:33Z</time></trkpt><trkpt lat="42.21113855104387" lon="13.816616856911303"><ele>373.0</ele><time>2026-05-02T11:35:39Z</time></trkpt><trkpt lat="42.21118195006125" lon="13.81654200080572"><ele>373.0</ele><time>2026-05-02T11:35:45.999Z</time></trkpt><trkpt lat="42.21122028419834" lon="13.816468459837912"><ele>373.0</ele><time>2026-05-02T11:35:51.999Z</time></trkpt><trkpt lat="42.21126170465683" lon="13.816395364637735"><ele>373.0</ele><time>2026-05-02T11:35:57.999Z</time></trkpt><trkpt lat="42.211298482495145" lon="13.81632607071195"><ele>373.0</ele><time>2026-05-02T11:36:05.999Z</time></trkpt><trkpt lat="42.2113538648255" lon="13.81626190055667"><ele>373.0</ele><time>2026-05-02T11:36:57Z</time></trkpt><trkpt lat="42.21139341145108" lon="13.816194076419766"><ele>373.0</ele><time>2026-05-02T11:37:03Z</time></trkpt><trkpt lat="42.21144520639786" lon="13.816119951252759"><ele>373.0</ele><time>2026-05-02T11:37:09Z</time></trkpt><trkpt lat="42.21148489529614" lon="13.816039748996781"><ele>373.0</ele><time>2026-05-02T11:37:15Z</time></trkpt><trkpt lat="42.21153849587653" lon="13.815973318948648"><ele>373.0</ele><time>2026-05-02T11:37:21Z</time></trkpt><trkpt lat="42.21160282501171" lon="13.815971637900295"><ele>373.0</ele><time>2026-05-02T11:37:27Z</time></trkpt><trkpt lat="42.211667415307765" lon="13.815994029883862"><ele>371.2857142857143</ele><time>2026-05-02T11:37:33Z</time></trkpt><trkpt lat="42.21174174985522" lon="13.816008724805311"><ele>369.57142857142856</ele><time>2026-05-02T11:37:38.999Z</time></trkpt><trkpt lat="42.21180812520554" lon="13.816034649248046"><ele>367.8571428571429</ele><time>2026-05-02T11:37:44.999Z</time></trkpt><trkpt lat="42.21188211642884" lon="13.816054173374427"><ele>366.1428571428571</ele><time>2026-05-02T11:37:50.999Z</time></trkpt><trkpt lat="42.21194819215508" lon="13.816068177055852"><ele>364.4285714285714</ele><time>2026-05-02T11:37:55.999Z</time></trkpt><trkpt lat="42.21201790631174" lon="13.816084340574973"><ele>362.7142857142857</ele><time>2026-05-02T11:38:00.999Z</time></trkpt><trkpt lat="42.212080653462024" lon="13.816094211655226"><ele>361.0</ele><time>2026-05-02T11:38:05.999Z</time></trkpt><trkpt lat="42.212142430780325" lon="13.816135755042199"><ele>361.0</ele><time>2026-05-02T11:38:10.999Z</time></trkpt><trkpt lat="42.21221476521096" lon="13.816144618342422"><ele>361.0</ele><time>2026-05-02T11:38:16.999Z</time></trkpt><trkpt lat="42.21228477025793" lon="13.816157720424812"><ele>361.0</ele><time>2026-05-02T11:38:22.999Z</time></trkpt><trkpt lat="42.21235161787161" lon="13.816189342163094"><ele>361.0</ele><time>2026-05-02T11:38:29.001Z</time></trkpt><trkpt lat="42.212406686269915" lon="13.816237667257795"><ele>361.0</ele><time>2026-05-02T11:38:36.001Z</time></trkpt><trkpt lat="42.21240074708973" lon="13.81632544960853"><ele>361.0</ele><time>2026-05-02T11:38:41.001Z</time></trkpt><trkpt lat="42.212390413202925" lon="13.81642216276687"><ele>361.0</ele><time>2026-05-02T11:38:47.001Z</time></trkpt><trkpt lat="42.212353838667454" lon="13.816508450114526"><ele>361.0</ele><time>2026-05-02T11:38:53Z</time></trkpt><trkpt lat="42.21231574915203" lon="13.816579198859428"><ele>361.0</ele><time>2026-05-02T11:38:58Z</time></trkpt><trkpt lat="42.21225947037764" lon="13.816619553448856"><ele>361.0</ele><time>2026-05-02T11:39:03Z</time></trkpt><trkpt lat="42.21220521632196" lon="13.816666171356275"><ele>361.0</ele><time>2026-05-02T11:39:08Z</time></trkpt><trkpt lat="42.21213940204795" lon="13.816674825957282"><ele>361.0</ele><time>2026-05-02T11:39:13Z</time></trkpt><trkpt lat="42.212073499489016" lon="13.816700688899298"><ele>361.0</ele><time>2026-05-02T11:39:19Z</time></trkpt><trkpt lat="42.21199879790878" lon="13.816727996051537"><ele>361.0</ele><time>2026-05-02T11:39:25Z</time></trkpt><trkpt lat="42.21192740299309" lon="13.816746630644442"><ele>361.0</ele><time>2026-05-02T11:39:31Z</time></trkpt><trkpt lat="42.21186221533789" lon="13.81675528018205"><ele>361.0</ele><time>2026-05-02T11:39:36Z</time></trkpt><trkpt lat="42.211791889261505" lon="13.816775572969414"><ele>361.0</ele><time>2026-05-02T11:39:42.999Z</time></trkpt><trkpt lat="42.21172390511869" lon="13.816796646032968"><ele>361.0</ele><time>2026-05-02T11:39:48.999Z</time></trkpt><trkpt lat="42.21165921908734" lon="13.816826413282703"><ele>361.0</ele><time>2026-05-02T11:39:54.999Z</time></trkpt><trkpt lat="42.211596606554096" lon="13.81687357144066"><ele>361.0</ele><time>2026-05-02T11:40:00.999Z</time></trkpt><trkpt lat="42.21153404376036" lon="13.816925546429488"><ele>361.0</ele><time>2026-05-02T11:40:06.999Z</time></trkpt><trkpt lat="42.211474174522735" lon="13.8169819326872"><ele>359.5714285714286</ele><time>2026-05-02T11:40:14.999Z</time></trkpt><trkpt lat="42.2114280604598" lon="13.817060453109534"><ele>358.1428571428571</ele><time>2026-05-02T11:40:21.999Z</time></trkpt><trkpt lat="42.211358776268426" lon="13.817070723562214"><ele>356.7142857142857</ele><time>2026-05-02T11:40:28.999Z</time></trkpt><trkpt lat="42.21129156749205" lon="13.817071129157043"><ele>355.28571428571433</ele><time>2026-05-02T11:40:35.001Z</time></trkpt><trkpt lat="42.21122643162058" lon="13.817076275429216"><ele>353.8571428571429</ele><time>2026-05-02T11:40:41.001Z</time></trkpt><trkpt lat="42.2111538351509" lon="13.817081556631377"><ele>352.42857142857144</ele><time>2026-05-02T11:40:47.001Z</time></trkpt><trkpt lat="42.211090612770796" lon="13.81707050657493"><ele>351.0</ele><time>2026-05-02T11:40:52Z</time></trkpt><trkpt lat="42.2110265520815" lon="13.817080781111727"><ele>351.00000000000006</ele><time>2026-05-02T11:41:07Z</time></trkpt><trkpt lat="42.21095521966305" lon="13.817082743705852"><ele>351.0</ele><time>2026-05-02T11:41:14Z</time></trkpt><trkpt lat="42.210886338023705" lon="13.817061148397409"><ele>351.0</ele><time>2026-05-02T11:41:21Z</time></trkpt><trkpt lat="42.21082063231985" lon="13.817033401964903"><ele>351.0</ele><time>2026-05-02T11:41:26Z</time></trkpt><trkpt lat="42.21074970781811" lon="13.81700013379179"><ele>351.0</ele><time>2026-05-02T11:41:31Z</time></trkpt><trkpt lat="42.210678607391095" lon="13.816997607290771"><ele>351.00000000000006</ele><time>2026-05-02T11:41:36Z</time></trkpt><trkpt lat="42.21061514523601" lon="13.817048706633805"><ele>351.0</ele><time>2026-05-02T11:41:43.999Z</time></trkpt><trkpt lat="42.21057048751846" lon="13.817109118210835"><ele>352.42857142857144</ele><time>2026-05-02T11:41:51.999Z</time></trkpt><trkpt lat="42.2105304315083" lon="13.817204987315439"><ele>353.8571428571429</ele><time>2026-05-02T11:44:07.999Z</time></trkpt><trkpt lat="42.21046732038017" lon="13.817226987006581"><ele>355.28571428571433</ele><time>2026-05-02T11:44:20.999Z</time></trkpt><trkpt lat="42.210424290560994" lon="13.817292269883483"><ele>356.7142857142857</ele><time>2026-05-02T11:44:31.999Z</time></trkpt><trkpt lat="42.21037451238145" lon="13.81735367660496"><ele>358.1428571428571</ele><time>2026-05-02T11:44:39.999Z</time></trkpt><trkpt lat="42.21031923666373" lon="13.817409473252035"><ele>359.5714285714286</ele><time>2026-05-02T11:44:53Z</time></trkpt><trkpt lat="42.21038100662405" lon="13.817465572884071"><ele>361.0</ele><time>2026-05-02T11:45:05Z</time></trkpt><trkpt lat="42.21044410021909" lon="13.817482885559114"><ele>361.0</ele><time>2026-05-02T11:45:12Z</time></trkpt><trkpt lat="42.210522181788356" lon="13.817500516095246"><ele>361.0</ele><time>2026-05-02T11:45:19Z</time></trkpt><trkpt lat="42.21058104372435" lon="13.817532596124074"><ele>361.0</ele><time>2026-05-02T11:45:24Z</time></trkpt><trkpt lat="42.21063296849167" lon="13.817587599056655"><ele>361.0</ele><time>2026-05-02T11:45:30Z</time></trkpt><trkpt lat="42.210644901168955" lon="13.817674511031258"><ele>361.0</ele><time>2026-05-02T11:45:37Z</time></trkpt><trkpt lat="42.210585620202224" lon="13.817643336479021"><ele>361.0</ele><time>2026-05-02T11:45:58.999Z</time></trkpt><trkpt lat="42.21053503668499" lon="13.817591821602758"><ele>361.0</ele><time>2026-05-02T11:46:06.999Z</time></trkpt><trkpt lat="42.21046658705977" lon="13.817562268481344"><ele>361.0</ele><time>2026-05-02T11:46:12.999Z</time></trkpt><trkpt lat="42.210451618739754" lon="13.817645381961082"><ele>361.0</ele><time>2026-05-02T11:46:19.999Z</time></trkpt><trkpt lat="42.210496670440975" lon="13.817717673065465"><ele>361.0</ele><time>2026-05-02T11:46:26.999Z</time></trkpt><trkpt lat="42.21049939970336" lon="13.81781644175801"><ele>361.0</ele><time>2026-05-02T11:46:32.999Z</time></trkpt><trkpt lat="42.21044121920976" lon="13.817779671934446"><ele>361.0</ele><time>2026-05-02T11:46:43.998Z</time></trkpt><trkpt lat="42.210415780191845" lon="13.817698665950413"><ele>361.0</ele><time>2026-05-02T11:46:52Z</time></trkpt><trkpt lat="42.2103602373113" lon="13.817652373782936"><ele>361.0</ele><time>2026-05-02T11:46:58Z</time></trkpt><trkpt lat="42.21032193777939" lon="13.817732529832995"><ele>361.2857142857143</ele><time>2026-05-02T11:47:04Z</time></trkpt><trkpt lat="42.210333918038046" lon="13.81783083640249"><ele>361.57142857142856</ele><time>2026-05-02T11:47:20Z</time></trkpt><trkpt lat="42.210356336348944" lon="13.817912521747143"><ele>361.85714285714283</ele><time>2026-05-02T11:47:27Z</time></trkpt><trkpt lat="42.210390702944515" lon="13.817998655462908"><ele>362.1428571428571</ele><time>2026-05-02T11:47:33Z</time></trkpt><trkpt lat="42.210416997366615" lon="13.818080990056107"><ele>362.42857142857144</ele><time>2026-05-02T11:47:39Z</time></trkpt><trkpt lat="42.21043735989842" lon="13.818169062591352"><ele>362.71428571428567</ele><time>2026-05-02T11:47:45Z</time></trkpt><trkpt lat="42.21050743601195" lon="13.818168295826789"><ele>363.0</ele><time>2026-05-02T11:47:51.999Z</time></trkpt><trkpt lat="42.21056753805859" lon="13.818107805021175"><ele>362.99999999999994</ele><time>2026-05-02T11:47:57.999Z</time></trkpt><trkpt lat="42.21061319414604" lon="13.818043988053548"><ele>363.0</ele><time>2026-05-02T11:48:01.999Z</time></trkpt><trkpt lat="42.21067650721269" lon="13.818033032957855"><ele>363.0</ele><time>2026-05-02T11:48:08.999Z</time></trkpt><trkpt lat="42.210664384522715" lon="13.818125222570556"><ele>363.0</ele><time>2026-05-02T11:48:14.999Z</time></trkpt><trkpt lat="42.21066786196137" lon="13.818217943663301"><ele>363.0</ele><time>2026-05-02T11:48:22.999Z</time></trkpt><trkpt lat="42.21068461963903" lon="13.81831656520588"><ele>362.99999999999994</ele><time>2026-05-02T11:48:28.999Z</time></trkpt><trkpt lat="42.21070651719419" lon="13.818401970854598"><ele>363.0</ele><time>2026-05-02T11:48:34.999Z</time></trkpt><trkpt lat="42.210756077392666" lon="13.818455176881384"><ele>360.85714285714283</ele><time>2026-05-02T11:48:39.999Z</time></trkpt><trkpt lat="42.21081871516757" lon="13.818488556553367"><ele>358.7142857142857</ele><time>2026-05-02T11:48:45.998Z</time></trkpt><trkpt lat="42.210874799777734" lon="13.818540946791542"><ele>356.57142857142856</ele><time>2026-05-02T11:48:50.998Z</time></trkpt><trkpt lat="42.21094890765509" lon="13.818547596404423"><ele>354.42857142857144</ele><time>2026-05-02T11:48:56Z</time></trkpt><trkpt lat="42.211012875898255" lon="13.818556673173068"><ele>352.2857142857143</ele><time>2026-05-02T11:49:01Z</time></trkpt><trkpt lat="42.211076205023" lon="13.81854905684844"><ele>350.1428571428571</ele><time>2026-05-02T11:49:06Z</time></trkpt><trkpt lat="42.211130290348564" lon="13.818504985360411"><ele>348.0</ele><time>2026-05-02T11:49:11Z</time></trkpt><trkpt lat="42.21119322794984" lon="13.818513818042772"><ele>348.0</ele><time>2026-05-02T11:49:19Z</time></trkpt><trkpt lat="42.21125351243475" lon="13.818541688406611"><ele>348.0</ele><time>2026-05-02T11:49:25Z</time></trkpt><trkpt lat="42.21132926061027" lon="13.818556465917796"><ele>348.0</ele><time>2026-05-02T11:49:32Z</time></trkpt><trkpt lat="42.21139519710771" lon="13.818578424335568"><ele>348.0</ele><time>2026-05-02T11:49:38Z</time></trkpt><trkpt lat="42.21146996446613" lon="13.818580641245582"><ele>348.0</ele><time>2026-05-02T11:49:44Z</time></trkpt><trkpt lat="42.211546499324214" lon="13.818562809132779"><ele>348.0</ele><time>2026-05-02T11:49:51Z</time></trkpt><trkpt lat="42.21161702101591" lon="13.81859956296278"><ele>348.0</ele><time>2026-05-02T11:49:56.999Z</time></trkpt><trkpt lat="42.21168077838417" lon="13.818640213547672"><ele>345.42857142857144</ele><time>2026-05-02T11:50:02.999Z</time></trkpt><trkpt lat="42.21174673100572" lon="13.818681852544358"><ele>342.8571428571429</ele><time>2026-05-02T11:50:08.999Z</time></trkpt><trkpt lat="42.21179871736229" lon="13.818738701601584"><ele>340.28571428571433</ele><time>2026-05-02T11:50:13.999Z</time></trkpt><trkpt lat="42.21184288110425" lon="13.818817166554762"><ele>337.7142857142857</ele><time>2026-05-02T11:50:19.999Z</time></trkpt><trkpt lat="42.21185154967965" lon="13.818916955434736"><ele>335.14285714285717</ele><time>2026-05-02T11:50:26.999Z</time></trkpt><trkpt lat="42.21184718283946" lon="13.819004388005782"><ele>332.5714285714286</ele><time>2026-05-02T11:50:31.999Z</time></trkpt><trkpt lat="42.21182915339164" lon="13.819101332462843"><ele>330.0</ele><time>2026-05-02T11:50:37.999Z</time></trkpt><trkpt lat="42.21182048363759" lon="13.819196001336918"><ele>330.00000000000006</ele><time>2026-05-02T11:50:43.999Z</time></trkpt><trkpt lat="42.21181584278697" lon="13.819298900792873"><ele>330.0</ele><time>2026-05-02T11:50:50.998Z</time></trkpt><trkpt lat="42.21181074965018" lon="13.819395292116447"><ele>330.0</ele><time>2026-05-02T11:50:57.998Z</time></trkpt><trkpt lat="42.211803480663" lon="13.819487738995692"><ele>330.0</ele><time>2026-05-02T11:51:04Z</time></trkpt><trkpt lat="42.211791815315706" lon="13.819580975305398"><ele>330.0</ele><time>2026-05-02T11:51:10Z</time></trkpt><trkpt lat="42.21179699033305" lon="13.819681121818252"><ele>330.00000000000006</ele><time>2026-05-02T11:51:17Z</time></trkpt><trkpt lat="42.21179456098746" lon="13.81976622321501"><ele>330.0</ele><time>2026-05-02T11:51:23Z</time></trkpt><trkpt lat="42.211774501306" lon="13.819854682457871"><ele>329.7142857142857</ele><time>2026-05-02T11:51:29Z</time></trkpt><trkpt lat="42.21176069588942" lon="13.819949170484499"><ele>329.42857142857144</ele><time>2026-05-02T11:51:38Z</time></trkpt><trkpt lat="42.21177933069592" lon="13.820041677815826"><ele>329.1428571428571</ele><time>2026-05-02T11:51:45Z</time></trkpt><trkpt lat="42.21178007560817" lon="13.820139614071117"><ele>328.8571428571429</ele><time>2026-05-02T11:51:51Z</time></trkpt><trkpt lat="42.21178869060326" lon="13.820233513446638"><ele>328.57142857142856</ele><time>2026-05-02T11:51:57.999Z</time></trkpt><trkpt lat="42.211811126912934" lon="13.820321596729952"><ele>328.2857142857143</ele><time>2026-05-02T11:52:03.999Z</time></trkpt><trkpt lat="42.21179551596119" lon="13.820421132705116"><ele>328.0</ele><time>2026-05-02T11:52:09.999Z</time></trkpt><trkpt lat="42.2117408674779" lon="13.8204820833"><ele>328.0</ele><time>2026-05-02T11:52:15.999Z</time></trkpt></trkseg></trk></gpx>